Dousman, WI

4:00 PM CDT on August 31, 2015 (GMT -0500)
Opengate | | Change Station
CLOSE
Current Station
Personal Weather Station
Location: Oconomowoc, WI
Elevation: 892 ft
Nearby Weather Stations

Elev 892 ft 43.02 °N, 88.45 °W | Updated 43 seconds ago

Clear
Clear
84.9 °F
Feels Like 85 °F
N
4.5
Wind Variable Wind from SSW
Gusts 4.9 mph

Today
High -- | Low -- °F
--% Chance of Precip.
Yesterday
High -- | Low -- °F
Precip. -- in
6:17 AM 7:30 PM
Waning Gibbous, 93% visible
Pressure 30.04 in
Visibility 10.0 miles
Clouds Scattered Clouds 3000 ft
Heat Index 85 °F
Dew Point 61 °F
Humidity 44%
Rainfall 0.00 in
Snow Depth Not available.
UV 2.0 out of 12
Pollen 9.30 out of 12
Air Quality Not available.
Flu Activity Not available.
METAR KUES 312045Z 21005KT 10SM SCT030 26/19 A3004
Pressure 30.04 in
Visibility 10.0 miles
Clouds Scattered Clouds 3000 ft
Heat Index 85 °F
Dew Point 61 °F
Humidity 44%
Rainfall 0.00 in
Snow Depth Not available.
UV 2.0 out of 12
Pollen 9.30 out of 12
Air Quality Not available.
Flu Activity Not available.
METAR KUES 312045Z 21005KT 10SM SCT030 26/19 A3004

10-Day Weather Forecast

×

Almanac

Astronomy

Aug. 31, 2015 Rise Set
Actual Time
Civil Twilight
Nautical Twilight
Astronomical Twilight
Moon
Length of Visible Light
Length of Day
Tomorrow will be .
, % of the Moon is Illuminated

Today's Extremes

State Highs State Lows

Community

WunderPhotos

Upload Photos

1,851,366 photos uploaded!

WunderBlogs® & News

Nearby

Air Quality

  Air Quality AQ Index Pollutant
Not available.

Snow Depth

Station Depth Elevation

Earthquake Activity

City Distance Mag. Time & Date
Minimum magnitude displayed is 2.5.

Coastal Water Temperatures

Place Temperature

Stations

Nearby Weather Stations

Station Location Temp. Windchill Dew Point Humidity Wind Precip. Elev Updated Type